Sarasota Bradenton International Airport
KSRQ : now visible

Airfield :











YOU CAN JOIN US ON...

 
LOGIN :

Register | Disclaimer

   EN    FR    IT 

 









Legend :    VFR   Marginal VFR   IFR   Intensive IFR   Very Intensive IFR
Visi :
Ceiling :
>= 8 km
>= 3000ft
5 to 8 km
1000 to 3000 ft
1500m to 5 km
500 to 1000 ft
800 to 1500m
200 to 500 ft
< 800m
< 200 ft
Symbols :   Thunderstorms  Fog  Heavy snow  Heavy precipitations  Wind > 20 kt






- Airport Elevation : 30 ft
- IATA code : SRQ


KSRQ - Sarasota Bradenton International

CURRENT METAR :
  • 281453Z 19011KT 10SM CLR 30/24 A3006 RMK AO2 LTG DSNT SE SLP178 T03000244 51014

EXPIRED METARs :
  • 281353Z 17009KT 10SM FEW014 29/24 A3005 RMK AO2 SLP176 T02890244
  • 281345Z 18006KT 10SM BKN014 29/25 A3005 RMK AO2 T02890250
  • 281253Z 13005KT 10SM CLR 28/25 A3004 RMK AO2 SLP172 T02780250

TAF KSRQ
Valid from the 28 at 12:00 until the 29 at 12:00 UTC


281138Z 2812/2912 15005KT P6SM SCT015 BKN250
FM281400 18007KT P6SM SCT030 BKN250
FM281700 23009KT P6SM SCT040 BKN250
FM282300 30007KT P6SM VCTS SCT040CB BKN250
FM290200 VRB04KT P6SM FEW040 BKN250
KZMA FIR / North America



MET'MAP, your aeronautical weather chart ! - Copyright ORBIFLY December 2007 - Disclaimer

ORBIFLY MET'MAP TEAM :

Programming & Development : Alexandra Zaïnal
Concept & original design : Baudouin d'Aumeries
Assistance for programming : Marc-Olivier Méhu
Technical & hardware support : Manuel Goepfert

Contact : metmap@orbifly.com




SOURCES & CREDITS :

   NOAA       Earth
Advisory